createdAt,value
2022-07-26T00:02:25.405Z,20.12
2022-07-26T00:04:55.257Z,20.23
2022-07-26T00:07:25.023Z,20.48
2022-07-26T00:09:54.788Z,20.51
2022-07-26T00:12:24.576Z,20.61
2022-07-26T00:14:54.511Z,20.56
2022-07-26T00:17:24.367Z,20.53
2022-07-26T00:19:54.148Z,20.70
2022-07-26T00:22:36.043Z,20.54
2022-07-26T00:25:09.542Z,20.55
2022-07-26T00:27:39.349Z,20.30
2022-07-26T00:30:11.483Z,20.44
2022-07-26T00:32:41.259Z,20.43
2022-07-26T00:35:11.172Z,20.51
2022-07-26T00:37:41.474Z,20.43
2022-07-26T00:40:12.720Z,20.39
2022-07-26T00:42:42.351Z,20.63
2022-07-26T00:45:15.257Z,20.46
2022-07-26T00:47:45.175Z,20.33
2022-07-26T00:50:17.494Z,20.44
2022-07-26T00:52:49.720Z,20.47
2022-07-26T00:55:19.737Z,20.62
2022-07-26T00:57:52.090Z,20.68
2022-07-26T01:00:27.072Z,20.35
2022-07-26T01:02:57.402Z,20.35
2022-07-26T01:05:28.090Z,20.23
2022-07-26T01:07:58.484Z,20.37
2022-07-26T01:10:27.969Z,20.33
2022-07-26T01:12:57.752Z,20.36
2022-07-26T01:15:28.373Z,20.52
2022-07-26T01:17:58.164Z,20.58
2022-07-26T01:20:27.887Z,20.65
2022-07-26T01:22:57.677Z,20.28
2022-07-26T01:25:32.584Z,20.19
2022-07-26T01:28:06.889Z,20.46
2022-07-26T01:30:36.963Z,20.41
2022-07-26T01:33:06.612Z,20.36
2022-07-26T01:35:36.744Z,20.45
2022-07-26T01:38:08.095Z,20.45
2022-07-26T01:40:37.873Z,20.35
2022-07-26T01:43:07.832Z,20.54
2022-07-26T01:45:37.701Z,20.30
2022-07-26T01:48:10.079Z,20.30
2022-07-26T01:50:39.862Z,20.50
2022-07-26T01:53:09.645Z,20.21
2022-07-26T01:55:39.417Z,20.06
2022-07-26T01:58:11.051Z,20.11
2022-07-26T02:00:41.163Z,19.79
2022-07-26T02:03:11.480Z,19.57
2022-07-26T02:05:41.386Z,19.71
2022-07-26T02:08:12.570Z,19.64
2022-07-26T02:10:59.817Z,19.67
2022-07-26T02:13:38.909Z,19.71
2022-07-26T02:16:12.483Z,19.37
2022-07-26T02:18:42.915Z,19.17
2022-07-26T02:21:12.702Z,19.22
2022-07-26T02:23:42.783Z,19.27
2022-07-26T02:26:12.560Z,19.21
2022-07-26T02:28:42.760Z,19.64
2022-07-26T02:31:15.305Z,19.40
2022-07-26T02:33:44.084Z,19.53
2022-07-26T02:36:13.581Z,19.54
2022-07-26T02:38:43.657Z,19.56
2022-07-26T02:41:13.435Z,19.56
2022-07-26T02:43:43.204Z,19.69
2022-07-26T02:46:13.477Z,19.69
2022-07-26T02:48:43.316Z,19.85
2022-07-26T02:51:13.189Z,19.65
2022-07-26T02:53:43.069Z,19.62
2022-07-26T02:56:12.540Z,19.53
2022-07-26T02:58:42.329Z,19.71
2022-07-26T03:01:12.393Z,19.85
2022-07-26T03:03:48.636Z,19.87
2022-07-26T03:06:14.556Z,19.81
2022-07-26T03:08:44.372Z,19.81
2022-07-26T03:11:14.445Z,19.70
2022-07-26T03:13:44.292Z,19.69
2022-07-26T03:16:15.042Z,19.76
2022-07-26T03:18:46.026Z,19.75
2022-07-26T03:21:15.569Z,19.69
2022-07-26T03:23:45.339Z,19.87
2022-07-26T03:26:15.515Z,19.46
2022-07-26T03:28:45.291Z,19.46
2022-07-26T03:31:15.329Z,19.59
2022-07-26T03:33:45.178Z,19.51
2022-07-26T03:36:15.668Z,19.55
2022-07-26T03:38:45.698Z,19.35
2022-07-26T03:41:15.472Z,19.46
2022-07-26T03:43:45.294Z,19.50
2022-07-26T03:46:15.024Z,19.47
2022-07-26T03:48:44.945Z,19.32
2022-07-26T03:51:15.055Z,19.43
2022-07-26T03:53:44.855Z,19.58
2022-07-26T03:56:31.135Z,19.55
2022-07-26T03:59:03.313Z,19.68
2022-07-26T04:01:34.910Z,19.71
2022-07-26T04:04:06.878Z,19.64
2022-07-26T04:06:38.516Z,19.61
2022-07-26T04:09:09.125Z,19.73
2022-07-26T04:11:40.138Z,19.61
2022-07-26T04:14:12.597Z,19.72
2022-07-26T04:16:43.855Z,19.67
2022-07-26T04:19:13.933Z,19.69
2022-07-26T04:21:44.025Z,19.63
2022-07-26T04:24:13.856Z,19.93
2022-07-26T04:26:43.595Z,19.98
2022-07-26T04:29:14.709Z,20.02
2022-07-26T04:31:44.493Z,20.05
2022-07-26T04:34:14.265Z,19.77
2022-07-26T04:36:44.084Z,19.79
2022-07-26T04:39:13.874Z,19.88
2022-07-26T04:41:43.644Z,19.92
2022-07-26T04:44:13.424Z,19.97
2022-07-26T04:46:44.936Z,20.05
2022-07-26T04:49:14.748Z,20.03
2022-07-26T04:51:44.518Z,19.79
2022-07-26T04:54:15.622Z,19.72
2022-07-26T04:56:45.690Z,19.66
2022-07-26T04:59:18.520Z,19.85
2022-07-26T05:01:46.860Z,19.93
2022-07-26T05:04:16.664Z,20.00
2022-07-26T05:06:46.236Z,20.03
2022-07-26T05:09:16.035Z,19.85
2022-07-26T05:11:46.103Z,19.85
2022-07-26T05:14:15.883Z,19.85
2022-07-26T05:16:46.097Z,19.71
2022-07-26T05:19:16.333Z,19.68
2022-07-26T05:21:46.177Z,19.73
2022-07-26T05:24:15.969Z,19.86
2022-07-26T05:26:45.747Z,19.88
2022-07-26T05:29:15.329Z,19.97
2022-07-26T05:31:45.115Z,19.97
2022-07-26T05:34:14.885Z,19.41
2022-07-26T05:36:44.674Z,19.75
2022-07-26T05:39:16.166Z,19.74
2022-07-26T05:41:45.987Z,20.09
2022-07-26T05:44:15.834Z,20.33
2022-07-26T05:46:45.631Z,20.43
2022-07-26T05:49:15.543Z,20.27
2022-07-26T05:51:45.393Z,20.31
2022-07-26T05:54:15.646Z,20.42
2022-07-26T05:56:46.919Z,20.74
2022-07-26T05:59:16.682Z,20.50
2022-07-26T06:01:46.473Z,20.16
2022-07-26T06:04:16.224Z,20.18
2022-07-26T06:06:45.977Z,20.31
2022-07-26T06:09:15.818Z,20.69
2022-07-26T06:11:45.871Z,20.75
2022-07-26T06:14:15.536Z,20.63
2022-07-26T06:16:46.155Z,20.75
2022-07-26T06:19:16.271Z,20.89
2022-07-26T06:21:46.159Z,21.24
2022-07-26T06:24:16.140Z,21.43
2022-07-26T06:26:46.598Z,21.37
2022-07-26T06:29:16.664Z,21.46
2022-07-26T06:31:46.603Z,21.62
2022-07-26T06:34:16.500Z,21.77
2022-07-26T06:36:46.641Z,22.07
2022-07-26T06:39:16.122Z,22.01
2022-07-26T06:41:45.900Z,22.04
2022-07-26T06:44:15.661Z,22.07
2022-07-26T06:46:45.445Z,21.81
2022-07-26T06:49:19.439Z,21.94
2022-07-26T06:51:47.161Z,21.94
2022-07-26T06:54:16.933Z,21.50
2022-07-26T06:56:46.725Z,21.40
2022-07-26T06:59:16.490Z,21.40
2022-07-26T07:01:51.343Z,21.57
2022-07-26T07:04:18.041Z,21.74
2022-07-26T07:06:47.828Z,21.51
2022-07-26T07:09:19.151Z,21.63
2022-07-26T07:11:52.307Z,21.50
2022-07-26T07:14:22.769Z,21.29
2022-07-26T07:16:52.689Z,21.63
2022-07-26T07:19:22.146Z,21.35
2022-07-26T07:21:52.461Z,21.35
2022-07-26T07:24:21.931Z,21.41
2022-07-26T07:26:52.078Z,21.64
2022-07-26T07:29:22.143Z,21.44
2022-07-26T07:31:52.016Z,21.36
2022-07-26T07:34:24.198Z,21.37
2022-07-26T07:36:54.436Z,21.57
2022-07-26T07:39:24.284Z,21.70
2022-07-26T07:41:55.500Z,21.83
2022-07-26T07:44:25.263Z,21.88
2022-07-26T07:46:55.149Z,22.21
2022-07-26T07:49:25.018Z,22.03
2022-07-26T07:51:54.608Z,21.72
2022-07-26T07:54:24.372Z,21.92
2022-07-26T07:56:56.321Z,21.63
2022-07-26T07:59:25.850Z,21.45
2022-07-26T08:01:55.617Z,21.45
2022-07-26T08:04:25.480Z,21.14
2022-07-26T08:06:55.702Z,21.29
2022-07-26T08:09:28.982Z,21.29
2022-07-26T08:11:59.070Z,20.75
2022-07-26T08:14:30.185Z,20.39
2022-07-26T08:17:00.203Z,19.97
2022-07-26T08:19:41.716Z,20.41
2022-07-26T08:22:01.563Z,20.44
2022-07-26T08:24:31.404Z,20.10
2022-07-26T08:27:01.172Z,20.19
2022-07-26T08:29:30.988Z,20.13
2022-07-26T08:32:01.407Z,20.25
2022-07-26T08:34:31.293Z,20.44
2022-07-26T08:37:16.610Z,20.45
2022-07-26T08:39:32.597Z,20.61
2022-07-26T08:42:04.357Z,20.74
2022-07-26T08:44:34.874Z,21.05
2022-07-26T08:47:04.956Z,21.17
2022-07-26T08:49:34.594Z,21.35
2022-07-26T08:52:09.067Z,21.35
2022-07-26T08:54:40.504Z,21.53
2022-07-26T08:57:12.053Z,21.74
2022-07-26T08:59:42.087Z,21.53
2022-07-26T09:02:13.889Z,21.53
2022-07-26T09:04:46.316Z,21.66
2022-07-26T09:07:19.351Z,21.85
2022-07-26T09:10:03.005Z,22.32
2022-07-26T09:12:33.814Z,22.21
2022-07-26T09:15:06.208Z,22.25
2022-07-26T09:17:43.998Z,22.25
2022-07-26T09:20:16.851Z,22.17
2022-07-26T09:23:04.077Z,22.21
2022-07-26T09:25:39.384Z,22.50
2022-07-26T09:28:25.651Z,22.62
2022-07-26T09:31:04.450Z,22.51
2022-07-26T09:33:48.571Z,22.31
2022-07-26T09:36:19.387Z,22.47
2022-07-26T09:38:54.509Z,22.74
2022-07-26T09:41:37.544Z,22.89
2022-07-26T09:44:12.830Z,22.74
2022-07-26T09:46:45.973Z,23.19
2022-07-26T09:49:20.991Z,23.27
2022-07-26T09:51:53.743Z,23.02
2022-07-26T09:54:35.159Z,22.97
2022-07-26T09:57:05.068Z,22.97
2022-07-26T09:59:34.828Z,22.77
2022-07-26T10:02:06.602Z,22.99
2022-07-26T10:04:36.812Z,22.93
2022-07-26T10:07:06.595Z,22.81
2022-07-26T10:09:45.193Z,22.93
2022-07-26T10:12:18.077Z,23.17
2022-07-26T10:14:51.028Z,23.12
2022-07-26T10:17:41.732Z,22.78
2022-07-26T10:20:19.563Z,22.81
2022-07-26T10:22:50.493Z,23.41
2022-07-26T10:25:23.473Z,23.59
2022-07-26T10:27:56.093Z,22.85
2022-07-26T10:30:47.184Z,22.87
2022-07-26T10:33:18.713Z,22.52
2022-07-26T10:35:48.518Z,20.81
2022-07-26T10:38:26.510Z,20.20
2022-07-26T10:41:01.416Z,20.12
2022-07-26T10:43:41.247Z,20.28
2022-07-26T10:46:22.610Z,20.44
2022-07-26T10:49:09.350Z,20.64
2022-07-26T10:51:41.505Z,21.29
2022-07-26T10:54:14.033Z,21.08
2022-07-26T10:56:43.957Z,21.17
2022-07-26T10:59:13.724Z,21.27
2022-07-26T11:01:45.416Z,20.81
2022-07-26T11:04:21.986Z,20.81
2022-07-26T11:06:52.753Z,21.09
2022-07-26T11:09:23.522Z,21.50
2022-07-26T11:11:53.282Z,21.50
2022-07-26T11:14:22.770Z,21.71
2022-07-26T11:16:52.964Z,21.92
2022-07-26T11:19:25.836Z,22.16
2022-07-26T11:22:00.689Z,22.60
2022-07-26T11:24:30.828Z,22.22
2022-07-26T11:27:04.953Z,22.12
2022-07-26T11:29:38.463Z,22.49
2022-07-26T11:32:19.044Z,22.84
2022-07-26T11:34:50.660Z,23.48
2022-07-26T11:37:20.459Z,23.25
2022-07-26T11:39:50.216Z,23.29
2022-07-26T11:42:21.542Z,23.17
2022-07-26T11:44:53.427Z,23.60
2022-07-26T11:47:26.389Z,23.31
2022-07-26T11:52:32.685Z,23.31
2022-07-26T11:55:03.048Z,23.53
2022-07-26T11:57:33.153Z,23.59
2022-07-26T12:00:03.272Z,23.57
2022-07-26T12:02:41.974Z,23.88
2022-07-26T12:05:18.448Z,24.07
2022-07-26T12:08:04.326Z,24.28
2022-07-26T12:10:34.381Z,23.92
2022-07-26T12:13:16.080Z,24.04
2022-07-26T12:15:51.921Z,24.04
2022-07-26T12:18:26.809Z,24.01
2022-07-26T12:21:07.851Z,24.11
2022-07-26T12:23:49.884Z,23.56
2022-07-26T12:26:30.771Z,23.19
2022-07-26T12:29:19.389Z,23.19
2022-07-26T12:32:12.559Z,23.35
2022-07-26T12:34:43.426Z,23.48
2022-07-26T12:37:18.299Z,23.76
2022-07-26T12:40:11.658Z,23.76
2022-07-26T12:42:44.146Z,23.94
2022-07-26T12:45:14.564Z,24.16
2022-07-26T12:47:47.469Z,24.26
2022-07-26T12:50:19.421Z,24.02
2022-07-26T12:52:49.735Z,23.99
2022-07-26T12:55:21.529Z,24.05
2022-07-26T12:57:51.287Z,24.10
2022-07-26T13:00:22.867Z,24.20
2022-07-26T13:02:56.132Z,24.66
2022-07-26T13:05:26.096Z,24.66
2022-07-26T13:07:55.985Z,25.17
2022-07-26T13:10:35.038Z,25.17
2022-07-26T13:12:58.902Z,24.78
2022-07-26T13:15:36.803Z,24.65
2022-07-26T13:18:00.221Z,24.45
2022-07-26T13:20:29.768Z,24.46
2022-07-26T13:22:59.271Z,24.69
2022-07-26T13:25:34.055Z,24.22
2022-07-26T13:28:00.528Z,24.22
2022-07-26T13:30:30.559Z,24.67
2022-07-26T13:33:00.362Z,24.93
2022-07-26T13:35:30.130Z,24.55
2022-07-26T13:37:59.892Z,24.45
2022-07-26T13:40:31.752Z,24.28
2022-07-26T13:43:01.065Z,23.55
2022-07-26T13:45:30.907Z,23.61
2022-07-26T13:48:00.732Z,24.08
2022-07-26T13:50:30.501Z,24.08
2022-07-26T13:53:00.341Z,24.12
2022-07-26T13:55:30.107Z,24.16
2022-07-26T13:57:59.866Z,24.33
2022-07-26T14:00:30.839Z,24.02
2022-07-26T14:03:01.036Z,24.39
2022-07-26T14:05:31.055Z,24.24
2022-07-26T14:08:00.904Z,24.44
2022-07-26T14:10:30.384Z,24.71
2022-07-26T14:13:00.931Z,24.54
2022-07-26T14:15:30.701Z,24.73
2022-07-26T14:18:00.236Z,24.75
2022-07-26T14:20:30.351Z,24.75
2022-07-26T14:23:01.018Z,24.37
2022-07-26T14:25:33.292Z,24.19
2022-07-26T14:28:02.316Z,24.16
2022-07-26T14:30:32.227Z,23.90
2022-07-26T14:33:02.064Z,23.90
2022-07-26T14:35:31.544Z,24.28
2022-07-26T14:38:01.384Z,24.03
2022-07-26T14:40:31.142Z,24.08
2022-07-26T14:43:01.504Z,24.06
2022-07-26T14:45:31.324Z,24.40
2022-07-26T14:48:01.098Z,24.40
2022-07-26T14:50:47.028Z,24.67
2022-07-26T14:53:02.227Z,24.78
2022-07-26T14:55:31.700Z,24.96
2022-07-26T14:58:01.759Z,25.44
2022-07-26T15:00:31.628Z,25.39
2022-07-26T15:03:02.157Z,25.23
2022-07-26T15:05:31.957Z,25.10
2022-07-26T15:08:05.931Z,25.00
2022-07-26T15:10:33.261Z,24.89
2022-07-26T15:13:06.227Z,23.70
2022-07-26T15:15:36.446Z,23.67
2022-07-26T15:18:08.080Z,24.01
2022-07-26T15:20:40.065Z,23.64
2022-07-26T15:23:11.746Z,23.73
2022-07-26T15:25:41.859Z,23.98
2022-07-26T15:28:11.757Z,24.25
2022-07-26T15:30:41.520Z,24.20
2022-07-26T15:33:11.371Z,24.58
2022-07-26T15:35:41.492Z,24.41
2022-07-26T15:38:12.298Z,24.52
2022-07-26T15:40:42.129Z,24.11
2022-07-26T15:43:11.984Z,24.18
2022-07-26T15:45:43.767Z,24.43
2022-07-26T15:48:18.324Z,24.33
2022-07-26T15:50:45.837Z,24.74
2022-07-26T15:53:16.606Z,24.91
2022-07-26T15:55:46.392Z,24.99
2022-07-26T15:58:16.149Z,25.00
2022-07-26T16:00:46.316Z,25.26
2022-07-26T16:03:16.323Z,24.83
2022-07-26T16:05:47.571Z,25.05
2022-07-26T16:08:17.112Z,24.89
2022-07-26T16:10:47.219Z,24.84
2022-07-26T16:13:16.982Z,24.85
2022-07-26T16:15:46.746Z,24.94
2022-07-26T16:18:16.233Z,24.76
2022-07-26T16:20:46.639Z,24.77
2022-07-26T16:23:16.444Z,24.77
2022-07-26T16:25:45.910Z,25.09
2022-07-26T16:28:15.673Z,24.93
2022-07-26T16:30:45.450Z,24.61
2022-07-26T16:33:15.282Z,24.15
2022-07-26T16:35:45.055Z,24.12
2022-07-26T16:38:14.542Z,24.12
2022-07-26T16:40:44.776Z,24.09
2022-07-26T16:43:14.342Z,23.78
2022-07-26T16:45:44.178Z,23.62
2022-07-26T16:48:13.961Z,23.82
2022-07-26T16:50:43.776Z,23.73
2022-07-26T16:53:13.547Z,23.52
2022-07-26T16:55:45.059Z,23.54
2022-07-26T16:58:14.822Z,22.60
2022-07-26T17:00:44.722Z,22.89
2022-07-26T17:03:16.200Z,23.02
2022-07-26T17:05:46.718Z,23.07
2022-07-26T17:08:16.829Z,23.07
2022-07-26T17:10:46.661Z,22.87
2022-07-26T17:13:16.721Z,22.57
2022-07-26T17:15:46.417Z,22.51
2022-07-26T17:18:16.071Z,22.15
2022-07-26T17:20:45.830Z,22.21
2022-07-26T17:23:15.353Z,21.85
2022-07-26T17:25:45.538Z,21.85
2022-07-26T17:28:15.158Z,22.12
2022-07-26T17:30:45.206Z,21.91
2022-07-26T17:33:15.125Z,22.13
2022-07-26T17:35:44.919Z,21.90
2022-07-26T17:38:14.756Z,21.90
2022-07-26T17:40:44.911Z,21.74
2022-07-26T17:43:16.688Z,21.87
2022-07-26T17:45:46.155Z,21.92
2022-07-26T17:48:15.633Z,21.97
2022-07-26T17:50:45.757Z,21.57
2022-07-26T17:53:15.519Z,21.17
2022-07-26T17:55:47.291Z,21.50
2022-07-26T17:58:16.958Z,21.53
2022-07-26T18:00:47.061Z,21.69
2022-07-26T18:03:16.820Z,21.62
2022-07-26T18:05:46.672Z,21.51
2022-07-26T18:08:16.641Z,21.72
2022-07-26T18:10:51.091Z,21.73
2022-07-26T18:13:18.319Z,21.87
2022-07-26T18:15:48.321Z,21.78
2022-07-26T18:18:19.260Z,21.57
2022-07-26T18:20:49.275Z,21.31
2022-07-26T18:23:19.114Z,21.23
2022-07-26T18:25:48.883Z,21.31
2022-07-26T18:28:18.354Z,21.24
2022-07-26T18:30:48.142Z,20.91
2022-07-26T18:33:17.973Z,21.01
2022-07-26T18:35:47.739Z,20.89
2022-07-26T18:38:17.324Z,20.91
2022-07-26T18:40:47.115Z,20.82
2022-07-26T18:43:16.879Z,20.58
2022-07-26T18:45:46.846Z,20.65
2022-07-26T18:48:16.465Z,20.64
2022-07-26T18:50:46.369Z,20.47
2022-07-26T18:53:16.217Z,20.41
2022-07-26T18:55:45.980Z,20.41
2022-07-26T18:58:15.874Z,20.22
2022-07-26T19:00:45.925Z,20.14
2022-07-26T19:03:16.546Z,20.33
2022-07-26T19:05:46.587Z,20.44
2022-07-26T19:08:16.380Z,20.42
2022-07-26T19:10:46.143Z,20.20
2022-07-26T19:13:15.908Z,20.30
2022-07-26T19:15:45.783Z,20.23
2022-07-26T19:18:16.269Z,20.20
2022-07-26T19:20:46.175Z,20.15
2022-07-26T19:23:15.654Z,20.20
2022-07-26T19:25:47.253Z,19.93
2022-07-26T19:28:17.150Z,20.07
2022-07-26T19:30:47.037Z,20.08
2022-07-26T19:33:16.858Z,19.84
2022-07-26T19:35:46.593Z,19.83
2022-07-26T19:38:16.407Z,19.79
2022-07-26T19:40:46.354Z,19.50
2022-07-26T19:43:16.414Z,19.71
2022-07-26T19:45:46.322Z,19.40
2022-07-26T19:48:16.726Z,19.45
2022-07-26T19:50:46.496Z,19.08
2022-07-26T19:53:16.396Z,19.26
2022-07-26T19:55:46.564Z,19.16
2022-07-26T19:58:16.344Z,19.16
2022-07-26T20:00:46.121Z,19.35
2022-07-26T20:03:16.192Z,19.28
2022-07-26T20:05:46.233Z,19.16
2022-07-26T20:08:15.699Z,19.05
2022-07-26T20:10:45.541Z,18.96
2022-07-26T20:13:15.375Z,19.16
2022-07-26T20:15:46.620Z,18.87
2022-07-26T20:18:18.389Z,18.90
2022-07-26T20:20:48.332Z,18.94
2022-07-26T20:23:18.085Z,18.98
2022-07-26T20:25:47.867Z,19.08
2022-07-26T20:28:17.879Z,19.01
2022-07-26T20:30:50.402Z,19.14
2022-07-26T20:33:20.177Z,19.02
2022-07-26T20:35:54.748Z,18.92
2022-07-26T20:38:21.399Z,18.93
2022-07-26T20:40:51.247Z,18.92
2022-07-26T20:43:22.300Z,19.05
2022-07-26T20:45:52.199Z,19.03
2022-07-26T20:48:21.949Z,18.99
2022-07-26T20:50:51.736Z,18.99
2022-07-26T20:53:21.563Z,18.99
2022-07-26T20:55:51.586Z,18.84
2022-07-26T20:58:22.116Z,18.84
2022-07-26T21:00:52.296Z,18.82
2022-07-26T21:03:22.474Z,18.63
2022-07-26T21:05:52.532Z,18.72
2022-07-26T21:08:22.586Z,18.74
2022-07-26T21:10:52.374Z,18.79
2022-07-26T21:13:22.296Z,18.62
2022-07-26T21:15:53.671Z,18.62
2022-07-26T21:18:23.485Z,18.71
2022-07-26T21:20:53.253Z,18.57
2022-07-26T21:23:23.291Z,18.41
2022-07-26T21:26:00.459Z,18.34
2022-07-26T21:28:26.062Z,18.35
2022-07-26T21:30:56.442Z,18.29
2022-07-26T21:33:26.273Z,18.10
2022-07-26T21:35:56.035Z,18.19
2022-07-26T21:38:27.189Z,17.99
2022-07-26T21:40:56.958Z,17.99
2022-07-26T21:43:27.185Z,17.86
2022-07-26T21:45:57.062Z,17.86
2022-07-26T21:48:26.920Z,17.85
2022-07-26T21:50:56.764Z,17.77
2022-07-26T21:53:26.524Z,17.68
2022-07-26T21:55:57.655Z,17.72
2022-07-26T21:58:28.149Z,17.56
2022-07-26T22:00:59.763Z,17.48
2022-07-26T22:03:30.573Z,17.39
2022-07-26T22:06:02.052Z,17.47
2022-07-26T22:08:33.807Z,17.47
2022-07-26T22:11:03.646Z,17.30
2022-07-26T22:13:33.675Z,17.27
2022-07-26T22:16:03.583Z,17.27
2022-07-26T22:18:33.635Z,17.15
2022-07-26T22:21:03.581Z,17.03
2022-07-26T22:23:33.552Z,17.10
2022-07-26T22:26:05.049Z,17.06
2022-07-26T22:28:35.039Z,16.99
2022-07-26T22:31:04.559Z,16.99
2022-07-26T22:33:34.342Z,16.92
2022-07-26T22:36:04.168Z,16.85
2022-07-26T22:38:33.961Z,16.87
2022-07-26T22:41:03.798Z,16.92
2022-07-26T22:43:33.588Z,16.78
2022-07-26T22:46:03.498Z,16.79
2022-07-26T22:48:37.868Z,16.74
2022-07-26T22:51:04.806Z,16.74
2022-07-26T22:53:34.653Z,16.80
2022-07-26T22:56:04.447Z,16.85
2022-07-26T22:58:34.533Z,16.84
2022-07-26T23:01:04.431Z,16.84
2022-07-26T23:03:34.522Z,16.72
2022-07-26T23:06:10.392Z,16.68
2022-07-26T23:08:47.960Z,16.72
2022-07-26T23:11:11.504Z,16.74
2022-07-26T23:13:41.301Z,16.70
2022-07-26T23:16:13.268Z,16.60
2022-07-26T23:18:43.035Z,16.60
2022-07-26T23:21:12.815Z,16.67
2022-07-26T23:23:42.570Z,16.62
2022-07-26T23:26:14.460Z,16.60
2022-07-26T23:28:44.361Z,16.52
2022-07-26T23:31:14.558Z,16.40
2022-07-26T23:33:53.120Z,16.33
2022-07-26T23:36:16.271Z,16.30
2022-07-26T23:38:46.071Z,16.31
2022-07-26T23:41:15.864Z,16.33
2022-07-26T23:43:45.656Z,16.39
2022-07-26T23:46:15.837Z,16.26
2022-07-26T23:48:46.210Z,16.22
2022-07-26T23:51:16.606Z,16.32
2022-07-26T23:53:47.142Z,16.35
2022-07-26T23:56:17.567Z,16.25
2022-07-26T23:58:47.689Z,16.27
